Middlefield, Massachusetts
Current Conditions -  °F | °C
As of 7:54 AM on Wednesday 22 Oct 2014 (Local Time) from KPSF Reporting Station
Overcast Overcast  
Wind Chill: 44°   Ceiling: 1000
Heat Index: 48°   Visibility: 10mi
Dew Point: 45°   Wind: 9mph
Humidity: 89%   Direction: 70°ENE
Pressure: 30.02"   Gusts: NA
Location:  42.35°N, 73.02°W
Report Text: KPSF 221154Z AUTO 07008KT 10SM OVC010 09/07 A3002 RMK AO2 SLP159 60001 70013 T00890072 10100 20089 53012
Loading
Personal Weather Stations






























Interactive Weather Map
Tropical Storm Tracking
New forecast layout! Learn more

10-Day Weather Forecast

Advertisements
Track Severe Weather on mobile